Time;durP1;ratioP1;P1;durP2;ratioP2;P2;SDS_P1;SDS_P2;PMS_P1;PMS_P2;Temp;Humidity;BMP_temperature;BMP_pressure;BME280_temperature;BME280_humidity;BME280_pressure;Samples;Min_cycle;Max_cycle;Signal;HPM_P1;HPM_P2
2023/09/20 00:01:16;;;;;;;5.20;1.98;;;18.80;99.90;;;;;;4994898;28;20200;-78
2023/09/20 00:03:45;;;;;;;5.00;2.10;;;18.90;99.90;;;;;;4980324;28;20232;-78
2023/09/20 00:06:13;;;;;;;5.25;2.25;;;18.90;99.90;;;;;;4995679;28;20200;-78
2023/09/20 00:08:42;;;;;;;3.60;1.77;;;18.80;99.90;;;;;;4987257;28;20204;-78
2023/09/20 00:11:15;;;;;;;3.40;2.08;;;18.80;99.90;;;;;;4991804;28;20204;-78
2023/09/20 00:13:42;;;;;;;7.10;1.80;;;18.70;99.90;;;;;;4986937;28;20237;-78
2023/09/20 00:16:10;;;;;;;5.05;2.00;;;18.70;99.90;;;;;;4986715;28;20204;-78
2023/09/20 00:18:38;;;;;;;6.28;1.92;;;18.70;99.90;;;;;;4983083;28;20205;-78
2023/09/20 00:21:05;;;;;;;3.63;1.65;;;18.70;99.90;;;;;;4991835;28;20693;-78
2023/09/20 00:23:34;;;;;;;5.13;1.90;;;18.70;99.90;;;;;;4990993;28;20240;-78
2023/09/20 00:26:02;;;;;;;3.50;1.80;;;18.60;99.90;;;;;;4984011;28;20558;-78
2023/09/20 00:28:31;;;;;;;6.22;2.25;;;18.60;99.90;;;;;;4974338;28;20205;-78
2023/09/20 00:30:58;;;;;;;3.42;1.70;;;18.60;99.90;;;;;;4973080;28;20201;-78
2023/09/20 00:33:27;;;;;;;6.20;1.83;;;18.60;99.90;;;;;;4985245;28;20698;-79
2023/09/20 00:35:54;;;;;;;6.90;2.20;;;18.60;99.90;;;;;;4985290;28;20204;-78
2023/09/20 00:38:24;;;;;;;4.70;1.98;;;18.50;99.90;;;;;;4985840;28;20217;-78
2023/09/20 00:40:53;;;;;;;6.05;2.33;;;18.50;99.90;;;;;;4981959;28;20210;-78
2023/09/20 00:43:24;;;;;;;4.47;1.77;;;18.50;99.90;;;;;;4973254;28;20216;-78
2023/09/20 00:45:51;;;;;;;4.03;1.67;;;18.50;99.90;;;;;;4988891;28;20205;-78
2023/09/20 00:48:20;;;;;;;4.65;2.00;;;18.50;99.90;;;;;;4978283;28;20197;-78
2023/09/20 00:50:48;;;;;;;3.92;2.15;;;18.50;99.90;;;;;;4983008;28;20207;-78
2023/09/20 00:53:16;;;;;;;4.55;1.50;;;18.50;99.90;;;;;;4977499;28;20678;-78
2023/09/20 00:55:44;;;;;;;6.57;2.17;;;18.60;99.90;;;;;;4989895;28;20201;-78
2023/09/20 00:58:16;;;;;;;6.10;1.77;;;18.50;99.90;;;;;;4981300;28;20227;-78
2023/09/20 01:00:45;;;;;;;4.40;1.60;;;18.60;99.90;;;;;;4973733;28;20197;-78
2023/09/20 01:03:18;;;;;;;6.05;2.17;;;18.50;99.90;;;;;;4973205;28;20698;-78
2023/09/20 01:05:47;;;;;;;2.97;1.77;;;18.60;99.90;;;;;;4977657;28;20201;-78
2023/09/20 01:08:17;;;;;;;4.15;2.13;;;18.60;99.90;;;;;;4973305;28;20536;-78
2023/09/20 01:10:45;;;;;;;4.75;1.85;;;18.60;99.90;;;;;;4987811;28;20701;-78
2023/09/20 01:13:15;;;;;;;4.05;1.70;;;18.60;99.90;;;;;;4976653;28;20221;-78
2023/09/20 01:15:44;;;;;;;3.45;1.80;;;18.60;99.90;;;;;;4976462;28;20205;-78
2023/09/20 01:18:12;;;;;;;5.47;2.10;;;18.60;99.90;;;;;;4991214;28;20216;-78
2023/09/20 01:20:40;;;;;;;5.45;2.25;;;18.60;99.90;;;;;;4991449;28;20204;-78
2023/09/20 01:23:11;;;;;;;3.55;1.75;;;18.60;99.90;;;;;;4980470;28;20231;-78
2023/09/20 01:25:39;;;;;;;4.10;1.95;;;18.60;99.90;;;;;;4980081;28;20200;-78
2023/09/20 01:28:13;;;;;;;4.95;2.00;;;18.60;99.90;;;;;;4993568;28;20196;-78
2023/09/20 01:30:42;;;;;;;5.13;2.50;;;18.60;99.90;;;;;;4975950;28;20209;-78
2023/09/20 01:33:12;;;;;;;4.63;1.80;;;18.60;99.90;;;;;;4987000;28;20216;-78
2023/09/20 01:35:39;;;;;;;3.42;1.88;;;18.60;99.90;;;;;;4988918;28;20204;-78
2023/09/20 01:38:09;;;;;;;6.70;2.03;;;18.50;99.90;;;;;;4975716;28;20212;-78
2023/09/20 01:40:39;;;;;;;4.72;1.92;;;18.50;99.90;;;;;;4981570;28;20201;-78
2023/09/20 01:43:07;;;;;;;5.93;2.03;;;18.50;99.90;;;;;;4991715;28;20216;-78
2023/09/20 01:45:35;;;;;;;2.50;2.03;;;18.50;99.90;;;;;;4992655;28;20662;-78
2023/09/20 01:48:08;;;;;;;2.67;1.83;;;18.40;99.90;;;;;;4979602;28;20200;-78
2023/09/20 01:50:36;;;;;;;6.05;2.28;;;18.40;99.90;;;;;;4981300;28;20212;-78
2023/09/20 01:53:08;;;;;;;4.90;2.17;;;18.40;99.90;;;;;;4984496;28;20227;-78
2023/09/20 01:55:37;;;;;;;6.28;2.55;;;18.30;99.90;;;;;;4992249;28;20196;-78
2023/09/20 01:58:06;;;;;;;5.57;2.58;;;18.30;99.90;;;;;;4986837;28;20212;-78
2023/09/20 02:00:38;;;;;;;7.38;2.30;;;18.30;99.90;;;;;;4988196;28;20211;-78
2023/09/20 02:03:09;;;;;;;5.07;2.20;;;18.30;99.90;;;;;;4977411;28;20239;-78
2023/09/20 02:05:37;;;;;;;5.95;2.20;;;18.30;99.90;;;;;;4981563;28;20560;-78
2023/09/20 02:08:08;;;;;;;4.25;2.10;;;18.30;99.90;;;;;;4981783;28;20675;-78
2023/09/20 02:10:36;;;;;;;5.00;2.15;;;18.20;99.90;;;;;;4986832;28;20211;-78
2023/09/20 02:13:06;;;;;;;5.50;2.25;;;18.20;99.90;;;;;;4985780;28;20223;-78
2023/09/20 02:15:35;;;;;;;4.53;2.00;;;18.20;99.90;;;;;;4990392;28;20207;-78
2023/09/20 02:18:03;;;;;;;6.85;2.10;;;18.10;99.90;;;;;;4977885;28;20220;-78
2023/09/20 02:20:34;;;;;;;7.35;2.13;;;18.10;99.90;;;;;;4983305;28;20204;-78
2023/09/20 02:23:03;;;;;;;3.85;2.08;;;18.10;99.90;;;;;;4990753;28;20240;-78
2023/09/20 02:25:30;;;;;;;5.63;2.25;;;18.10;99.90;;;;;;4979769;28;20204;-78
2023/09/20 02:27:59;;;;;;;5.53;2.45;;;18.10;99.90;;;;;;4992015;28;20200;-78
2023/09/20 02:30:32;;;;;;;4.05;2.00;;;18.00;99.90;;;;;;4981337;28;20201;-78
2023/09/20 02:33:05;;;;;;;6.18;2.13;;;18.00;99.90;;;;;;4984092;28;20267;-78
2023/09/20 02:35:33;;;;;;;3.38;2.15;;;18.00;99.90;;;;;;4982099;28;20205;-78
2023/09/20 02:38:04;;;;;;;5.47;1.88;;;18.00;99.90;;;;;;4973828;28;20217;-78
2023/09/20 02:40:34;;;;;;;8.27;2.30;;;18.00;99.90;;;;;;4977695;28;20277;-78
2023/09/20 02:43:17;;;;;;;3.75;2.50;;;17.90;99.90;;;;;;4975409;28;20224;-78
2023/09/20 02:45:47;;;;;;;3.30;2.13;;;17.90;99.90;;;;;;4976573;28;20282;-78
2023/09/20 02:48:14;;;;;;;5.28;2.30;;;17.90;99.90;;;;;;4977170;28;20189;-78
2023/09/20 02:50:44;;;;;;;5.32;2.20;;;17.90;99.90;;;;;;4985874;28;20197;-78
2023/09/20 02:53:11;;;;;;;5.78;1.88;;;17.90;99.90;;;;;;4990575;28;20231;-78
2023/09/20 02:55:39;;;;;;;5.53;2.35;;;17.80;99.90;;;;;;4993429;28;20211;-78
2023/09/20 02:58:07;;;;;;;6.05;2.28;;;17.90;99.90;;;;;;4992764;28;20588;-78
2023/09/20 03:00:34;;;;;;;4.30;1.88;;;17.80;99.90;;;;;;4981120;28;20196;-78
2023/09/20 03:03:04;;;;;;;6.57;2.33;;;17.80;99.90;;;;;;4990449;28;20224;-78
2023/09/20 03:05:33;;;;;;;4.72;2.40;;;17.70;99.90;;;;;;4988447;28;20193;-78
2023/09/20 03:08:04;;;;;;;4.95;2.05;;;17.70;99.90;;;;;;4985711;28;20197;-78
2023/09/20 03:10:31;;;;;;;4.18;2.15;;;17.70;99.90;;;;;;4981062;28;20201;-78
2023/09/20 03:13:00;;;;;;;6.47;2.00;;;17.70;99.90;;;;;;4976769;28;20251;-78
2023/09/20 03:15:31;;;;;;;4.32;2.35;;;17.70;99.90;;;;;;4976668;28;20201;-78
2023/09/20 03:18:02;;;;;;;5.50;2.10;;;17.70;99.90;;;;;;4974041;28;20209;-78
2023/09/20 03:20:33;;;;;;;5.78;2.30;;;17.70;99.90;;;;;;4974040;28;20201;-78
2023/09/20 03:23:06;;;;;;;3.17;2.20;;;17.60;99.90;;;;;;4987403;28;20220;-77
2023/09/20 03:25:39;;;;;;;3.88;1.92;;;17.60;99.90;;;;;;4986950;28;20208;-78
2023/09/20 03:28:22;;;;;;;5.30;2.58;;;17.60;99.90;;;;;;4990599;28;20201;-78
2023/09/20 03:30:51;;;;;;;5.03;2.40;;;17.60;99.90;;;;;;4981317;28;20216;-78
2023/09/20 03:33:21;;;;;;;4.22;2.40;;;17.60;99.90;;;;;;4983709;28;20695;-78
2023/09/20 03:35:51;;;;;;;5.30;2.58;;;17.50;99.90;;;;;;4978873;28;20201;-78
2023/09/20 03:38:22;;;;;;;4.55;2.33;;;17.50;99.90;;;;;;5014100;23;20219;-77
2023/09/20 03:40:50;;;;;;;6.03;2.63;;;17.50;99.90;;;;;;4998577;28;20211;-77
2023/09/20 03:43:17;;;;;;;5.40;2.13;;;17.50;99.90;;;;;;4995019;28;20191;-77
2023/09/20 03:45:51;;;;;;;7.82;2.40;;;17.60;99.90;;;;;;5004668;28;20208;-77
2023/09/20 03:48:19;;;;;;;3.05;1.98;;;17.60;99.90;;;;;;4987638;28;20216;-77
2023/09/20 03:50:46;;;;;;;4.60;2.10;;;17.60;99.90;;;;;;4976376;28;20673;-77
2023/09/20 03:53:15;;;;;;;6.03;2.75;;;17.60;99.90;;;;;;4975985;28;20215;-77
2023/09/20 03:55:45;;;;;;;4.00;2.00;;;17.60;99.90;;;;;;4986864;28;20197;-77
2023/09/20 03:58:13;;;;;;;4.47;2.40;;;17.60;99.90;;;;;;4987437;28;20586;-77
2023/09/20 04:00:42;;;;;;;4.18;2.10;;;17.60;99.90;;;;;;4983674;28;20196;-77
2023/09/20 04:03:11;;;;;;;4.85;2.58;;;17.50;99.90;;;;;;4976994;28;20201;-77
2023/09/20 04:05:39;;;;;;;4.05;2.35;;;17.60;99.90;;;;;;4984204;28;20200;-77
2023/09/20 04:08:07;;;;;;;5.07;2.00;;;17.60;99.90;;;;;;4984324;28;20235;-77
2023/09/20 04:10:36;;;;;;;4.30;2.28;;;17.50;99.90;;;;;;4987362;28;20600;-77
2023/09/20 04:13:04;;;;;;;6.57;2.50;;;17.50;99.90;;;;;;4982510;28;20225;-77
2023/09/20 04:15:33;;;;;;;4.80;2.10;;;17.50;99.90;;;;;;4985055;28;20204;-77
2023/09/20 04:18:08;;;;;;;5.32;2.42;;;17.50;99.90;;;;;;4977371;28;20229;-77
2023/09/20 04:20:35;;;;;;;4.93;2.03;;;17.50;99.90;;;;;;4991696;28;20195;-77
2023/09/20 04:23:03;;;;;;;7.55;2.42;;;17.50;99.90;;;;;;4992424;28;20196;-78
2023/09/20 04:25:30;;;;;;;5.45;2.05;;;17.60;99.90;;;;;;4984721;28;20212;-78
2023/09/20 04:27:59;;;;;;;4.43;2.10;;;17.60;99.90;;;;;;4991705;28;20244;-78
2023/09/20 04:30:28;;;;;;;6.80;2.45;;;17.60;99.90;;;;;;4974326;28;20212;-78
2023/09/20 04:32:56;;;;;;;3.72;1.70;;;17.60;99.90;;;;;;4972845;28;20201;-78
2023/09/20 04:35:33;;;;;;;4.57;2.08;;;17.60;99.90;;;;;;4979059;28;20266;-78
2023/09/20 04:38:02;;;;;;;3.20;2.50;;;17.60;99.90;;;;;;4986181;28;20235;-78
2023/09/20 04:40:30;;;;;;;4.03;2.10;;;17.60;99.90;;;;;;4992026;28;20193;-78
2023/09/20 04:42:59;;;;;;;4.43;2.03;;;17.60;99.90;;;;;;4985205;28;20566;-78
2023/09/20 04:45:28;;;;;;;2.92;2.25;;;17.70;99.90;;;;;;4985775;28;20556;-78
2023/09/20 04:47:57;;;;;;;5.55;2.13;;;17.70;99.90;;;;;;4983604;28;20220;-78
2023/09/20 04:50:24;;;;;;;5.88;2.35;;;17.60;99.90;;;;;;4982360;28;20212;-78
2023/09/20 04:52:52;;;;;;;4.63;1.98;;;17.70;99.90;;;;;;4992036;28;20203;-78
2023/09/20 04:55:20;;;;;;;4.72;1.98;;;17.70;99.90;;;;;;4989871;28;20196;-78
2023/09/20 04:57:47;;;;;;;6.50;1.92;;;17.60;99.90;;;;;;4979733;28;20236;-78
2023/09/20 05:00:20;;;;;;;4.72;2.22;;;17.60;99.90;;;;;;4988796;28;20278;-78
2023/09/20 05:02:48;;;;;;;5.05;2.63;;;17.70;99.90;;;;;;4976223;28;20197;-78
2023/09/20 05:05:17;;;;;;;5.00;2.38;;;17.70;99.90;;;;;;4988028;28;20207;-78
2023/09/20 05:07:48;;;;;;;3.25;2.15;;;17.70;99.90;;;;;;4984428;28;20239;-78
2023/09/20 05:10:15;;;;;;;5.22;2.17;;;17.70;99.90;;;;;;4987147;28;20208;-78
2023/09/20 05:12:43;;;;;;;4.90;2.60;;;17.70;99.90;;;;;;4983200;28;20667;-78
2023/09/20 05:15:12;;;;;;;3.88;2.13;;;17.70;99.90;;;;;;4982573;28;20224;-78
2023/09/20 05:17:44;;;;;;;5.10;1.90;;;17.70;99.90;;;;;;4987916;28;20227;-78
2023/09/20 05:20:37;;;;;;;3.08;2.17;;;17.70;99.90;;;;;;4992759;28;20582;-78
2023/09/20 05:23:09;;;;;;;6.93;2.00;;;17.70;99.90;;;;;;4990957;28;20220;-78
2023/09/20 05:25:37;;;;;;;5.75;2.65;;;17.60;99.90;;;;;;4991065;28;20212;-78
2023/09/20 05:28:05;;;;;;;5.25;2.35;;;17.60;99.90;;;;;;4987012;28;20429;-78
2023/09/20 05:30:33;;;;;;;4.05;2.03;;;17.60;99.90;;;;;;4979161;28;20193;-78
2023/09/20 05:33:05;;;;;;;4.05;2.17;;;17.60;99.90;;;;;;4977042;28;20205;-78
2023/09/20 05:35:33;;;;;;;5.28;2.20;;;17.60;99.90;;;;;;4988855;28;20189;-78
2023/09/20 05:38:02;;;;;;;7.10;2.10;;;17.60;99.90;;;;;;4992600;28;20236;-78
2023/09/20 05:40:37;;;;;;;4.75;2.20;;;17.60;99.90;;;;;;4983425;28;20231;-78
2023/09/20 05:43:12;;;;;;;4.90;1.80;;;17.60;99.90;;;;;;4989383;28;20216;-77
2023/09/20 05:46:10;;;;;;;5.35;2.20;;;17.60;99.90;;;;;;4991544;28;20208;-77
2023/09/20 05:48:39;;;;;;;3.40;1.77;;;17.60;99.90;;;;;;4979424;28;20697;-77
2023/09/20 05:51:07;;;;;;;3.13;1.80;;;17.60;99.90;;;;;;4989996;28;20208;-78
2023/09/20 05:53:35;;;;;;;5.38;2.33;;;17.60;99.90;;;;;;4990053;28;20243;-78
2023/09/20 05:56:07;;;;;;;4.93;2.10;;;17.60;99.90;;;;;;4988896;28;20682;-78
2023/09/20 05:58:35;;;;;;;3.65;1.90;;;17.60;99.90;;;;;;4981917;28;20227;-77
2023/09/20 06:01:17;;;;;;;5.18;2.03;;;17.60;99.90;;;;;;4982723;28;20225;-77
2023/09/20 06:03:46;;;;;;;5.85;2.00;;;17.60;99.90;;;;;;5005561;28;20202;-76
2023/09/20 06:06:14;;;;;;;21.67;7.03;;;17.60;99.90;;;;;;4991812;28;20191;-76
2023/09/20 06:08:42;;;;;;;9.55;3.10;;;18.00;99.90;;;;;;4984625;28;20224;-76
2023/09/20 06:11:09;;;;;;;6.50;3.22;;;18.10;99.90;;;;;;4986806;28;20199;-76
2023/09/20 06:13:38;;;;;;;3.75;2.30;;;18.10;99.90;;;;;;5003821;28;20219;-76
2023/09/20 06:16:07;;;;;;;3.47;2.25;;;17.90;99.90;;;;;;5000542;28;20248;-76
2023/09/20 06:18:35;;;;;;;4.43;2.30;;;17.80;99.90;;;;;;4997834;28;20228;-78
2023/09/20 06:21:09;;;;;;;2.50;2.22;;;17.80;99.90;;;;;;4987598;28;20217;-80
2023/09/20 06:23:36;;;;;;;4.53;2.53;;;17.90;99.90;;;;;;4986138;28;20209;-77
2023/09/20 06:26:12;;;;;;;2.75;2.00;;;18.10;99.90;;;;;;4980058;28;20205;-76
2023/09/20 06:28:40;;;;;;;5.45;2.53;;;18.00;99.90;;;;;;4986270;28;20224;-76
2023/09/20 06:31:09;;;;;;;3.15;1.75;;;18.10;99.90;;;;;;4989883;28;20570;-77
2023/09/20 06:37:04;;;;;;;19.65;7.10;;;18.20;99.90;;;;;;4982869;28;20227;-77
2023/09/20 06:39:31;;;;;;;19.67;5.43;;;18.50;99.90;;;;;;4991882;28;20227;-77
2023/09/20 06:41:58;;;;;;;14.00;4.95;;;18.80;99.90;;;;;;4986488;28;20292;-77
2023/09/20 06:44:28;;;;;;;10.25;3.58;;;18.90;99.90;;;;;;4984086;28;20220;-76
2023/09/20 06:46:55;;;;;;;4.80;2.10;;;18.90;99.90;;;;;;4984566;28;20228;-77
2023/09/20 06:49:23;;;;;;;6.10;1.88;;;19.00;99.90;;;;;;4982485;28;20196;-80
2023/09/20 06:51:50;;;;;;;2.38;1.98;;;18.80;99.90;;;;;;4982981;28;20197;-79
2023/09/20 06:54:19;;;;;;;5.90;2.22;;;18.50;99.90;;;;;;4982745;28;20678;-79
2023/09/20 06:56:47;;;;;;;2.80;1.80;;;18.40;99.90;;;;;;4984987;28;20196;-78
2023/09/20 06:59:15;;;;;;;3.80;2.10;;;18.40;99.90;;;;;;4992366;28;20211;-78
2023/09/20 07:01:42;;;;;;;5.43;1.90;;;18.40;99.90;;;;;;4984754;28;20210;-78
2023/09/20 07:04:10;;;;;;;3.85;1.77;;;18.40;99.90;;;;;;4992521;28;20201;-79
2023/09/20 07:06:38;;;;;;;2.00;1.80;;;18.40;99.90;;;;;;4992927;28;20197;-79
2023/09/20 07:09:06;;;;;;;6.75;2.47;;;18.40;99.90;;;;;;4982160;28;20581;-79
2023/09/20 07:11:37;;;;;;;3.72;1.90;;;18.40;99.90;;;;;;4986498;28;20208;-79
2023/09/20 07:14:05;;;;;;;4.35;2.03;;;18.40;99.90;;;;;;4983465;28;20654;-79
2023/09/20 07:16:33;;;;;;;5.43;2.20;;;18.40;99.90;;;;;;4983843;28;20300;-79
2023/09/20 07:19:13;;;;;;;3.67;1.80;;;18.40;99.90;;;;;;4985619;28;20216;-79
2023/09/20 07:21:46;;;;;;;2.83;1.88;;;18.40;99.90;;;;;;4990409;28;20220;-78
2023/09/20 07:24:15;;;;;;;4.53;1.90;;;18.40;99.90;;;;;;4992827;28;20557;-78
2023/09/20 07:26:51;;;;;;;4.50;1.90;;;18.40;99.90;;;;;;4993463;28;20223;-78
2023/09/20 07:29:21;;;;;;;3.40;2.20;;;18.40;99.90;;;;;;4985601;28;20200;-78
2023/09/20 07:31:49;;;;;;;3.25;2.25;;;18.40;99.90;;;;;;4979824;28;20204;-78
2023/09/20 07:34:23;;;;;;;4.13;2.25;;;18.50;99.90;;;;;;4986488;28;20224;-78
2023/09/20 07:36:53;;;;;;;2.60;1.90;;;18.50;99.90;;;;;;4989013;28;20200;-78
2023/09/20 07:39:21;;;;;;;3.60;1.85;;;18.50;99.90;;;;;;4985482;28;20212;-78
2023/09/20 07:41:51;;;;;;;4.15;2.05;;;18.50;99.90;;;;;;4988392;28;20225;-78
2023/09/20 07:44:23;;;;;;;3.25;1.98;;;18.60;99.90;;;;;;4973541;28;20686;-78
2023/09/20 07:46:52;;;;;;;2.10;1.63;;;18.60;99.90;;;;;;4984456;28;20197;-78
2023/09/20 07:49:20;;;;;;;5.80;1.75;;;18.60;99.90;;;;;;4985709;28;20211;-78
2023/09/20 07:51:48;;;;;;;3.90;1.80;;;18.70;99.90;;;;;;4986658;28;20204;-78
2023/09/20 07:54:17;;;;;;;4.13;1.83;;;18.70;99.90;;;;;;4991333;28;20205;-78
2023/09/20 07:56:49;;;;;;;4.13;1.80;;;18.70;99.90;;;;;;4991044;28;20207;-79
2023/09/20 07:59:23;;;;;;;2.72;1.63;;;18.70;99.90;;;;;;4988703;28;20211;-79
2023/09/20 08:01:52;;;;;;;2.60;1.67;;;18.80;99.90;;;;;;4981934;28;20213;-78
2023/09/20 08:04:20;;;;;;;2.58;2.05;;;18.80;99.90;;;;;;4975667;28;20204;-78
2023/09/20 08:06:48;;;;;;;4.75;1.67;;;18.80;99.90;;;;;;4983144;28;20207;-78
2023/09/20 08:09:15;;;;;;;3.42;2.10;;;18.90;99.90;;;;;;4977875;28;20208;-79
2023/09/20 08:11:43;;;;;;;5.65;2.08;;;18.90;99.90;;;;;;4981096;28;20193;-79
2023/09/20 08:14:10;;;;;;;4.60;2.10;;;19.00;99.90;;;;;;4992753;28;20571;-78
2023/09/20 08:16:42;;;;;;;3.88;1.50;;;19.10;99.90;;;;;;4983683;28;20216;-78
2023/09/20 08:19:20;;;;;;;2.13;1.88;;;19.10;99.90;;;;;;4983005;28;20639;-79
2023/09/20 08:21:48;;;;;;;3.20;1.90;;;19.10;99.90;;;;;;4991279;28;20729;-78
2023/09/20 09:00:24;;;;;;;3.17;1.58;;;19.80;99.90;;;;;;4987312;28;20216;-78
2023/09/20 09:02:54;;;;;;;3.17;1.60;;;19.70;99.90;;;;;;4989391;28;20222;-78
2023/09/20 09:05:25;;;;;;;2.90;1.67;;;19.70;99.90;;;;;;4990377;28;20199;-78
2023/09/20 09:07:53;;;;;;;4.35;1.42;;;19.80;99.90;;;;;;4990902;28;20216;-78
2023/09/20 09:10:20;;;;;;;2.50;1.58;;;19.80;99.90;;;;;;4983417;28;20192;-78
2023/09/20 09:12:48;;;;;;;2.33;1.60;;;19.70;99.90;;;;;;4982592;28;20559;-78
2023/09/20 09:15:16;;;;;;;3.88;1.50;;;19.70;99.90;;;;;;4989738;28;20207;-78
2023/09/20 09:17:45;;;;;;;6.28;1.70;;;19.60;99.90;;;;;;4989794;28;20223;-78
2023/09/20 09:20:14;;;;;;;2.10;1.50;;;19.60;99.90;;;;;;4988428;28;20204;-78
2023/09/20 09:22:45;;;;;;;3.38;1.38;;;19.60;99.90;;;;;;4973496;28;20194;-78
2023/09/20 09:25:14;;;;;;;4.10;1.30;;;19.60;99.90;;;;;;4986870;28;20207;-78
2023/09/20 09:27:43;;;;;;;4.32;1.23;;;19.60;99.90;;;;;;4979662;28;20592;-78
2023/09/20 09:30:13;;;;;;;3.70;2.00;;;19.70;99.90;;;;;;4985288;28;20196;-78
2023/09/20 09:32:43;;;;;;;3.28;1.50;;;19.70;99.90;;;;;;4979680;28;20224;-78
2023/09/20 09:35:12;;;;;;;3.75;1.50;;;19.70;99.90;;;;;;5002414;28;20193;-77
2023/09/20 09:37:40;;;;;;;3.08;1.42;;;19.70;99.90;;;;;;4985946;28;20228;-78
2023/09/20 09:40:11;;;;;;;1.73;1.10;;;19.80;99.90;;;;;;4980265;28;20205;-78
2023/09/20 09:42:39;;;;;;;1.70;1.10;;;19.80;99.90;;;;;;4971635;28;20221;-78
2023/09/20 09:45:09;;;;;;;2.20;1.60;;;19.70;99.90;;;;;;4976099;28;20200;-78
2023/09/20 09:47:37;;;;;;;1.67;1.58;;;19.80;99.90;;;;;;4993808;28;20229;-78
2023/09/20 09:50:07;;;;;;;4.47;1.45;;;19.80;99.90;;;;;;4976031;28;20205;-78
2023/09/20 09:52:39;;;;;;;2.60;1.30;;;19.80;99.90;;;;;;4985830;28;20665;-78
2023/09/20 09:55:09;;;;;;;1.75;1.40;;;19.90;99.90;;;;;;4988980;28;20219;-78
2023/09/20 09:57:36;;;;;;;2.30;1.45;;;19.80;99.90;;;;;;4988310;28;20228;-78
2023/09/20 10:00:10;;;;;;;1.50;1.23;;;19.80;99.90;;;;;;4987883;28;20205;-78
2023/09/20 10:02:43;;;;;;;1.42;1.20;;;19.80;99.90;;;;;;5008997;23;20673;-79
2023/09/20 10:05:14;;;;;;;1.30;1.20;;;19.80;99.90;;;;;;5004769;28;20211;-79
2023/09/20 10:07:45;;;;;;;2.20;1.30;;;19.90;99.90;;;;;;5010201;28;20205;-79
2023/09/20 10:10:16;;;;;;;0.90;0.90;;;20.00;99.90;;;;;;5009236;28;20515;-79
2023/09/20 10:12:45;;;;;;;1.85;1.20;;;20.00;99.90;;;;;;5009040;28;20577;-79
2023/09/20 10:15:16;;;;;;;3.42;1.33;;;20.00;99.90;;;;;;5005686;28;20201;-79
2023/09/20 10:17:54;;;;;;;3.15;1.30;;;20.00;99.90;;;;;;5007873;28;20204;-80
2023/09/20 10:20:22;;;;;;;1.70;1.08;;;20.10;99.90;;;;;;5011798;28;20692;-78
2023/09/20 10:22:55;;;;;;;1.77;1.13;;;20.20;99.90;;;;;;5004740;28;20228;-78
2023/09/20 10:25:32;;;;;;;1.70;1.20;;;20.20;99.90;;;;;;5005614;28;20206;-78
2023/09/20 10:28:10;;;;;;;4.75;1.23;;;20.20;99.90;;;;;;5008233;28;20192;-78
2023/09/20 10:31:02;;;;;;;2.63;1.40;;;20.10;99.90;;;;;;5008425;28;20563;-78
2023/09/20 10:33:45;;;;;;;3.47;1.50;;;20.20;99.90;;;;;;5001731;28;20215;-79
2023/09/20 10:36:14;;;;;;;2.80;1.55;;;20.20;99.90;;;;;;5029270;28;20206;-78
2023/09/20 10:38:46;;;;;;;4.70;1.73;;;20.30;99.90;;;;;;5003628;28;20700;-78
2023/09/20 10:41:39;;;;;;;3.40;1.60;;;20.40;99.90;;;;;;5011468;28;20212;-78
2023/09/20 10:44:07;;;;;;;3.15;1.83;;;20.40;99.90;;;;;;5007644;28;20223;-79
2023/09/20 10:46:37;;;;;;;2.08;1.25;;;20.50;99.90;;;;;;5010122;28;20204;-78
2023/09/20 10:49:06;;;;;;;3.00;1.30;;;20.50;99.90;;;;;;5004540;28;20208;-78
2023/09/20 10:51:44;;;;;;;2.45;1.40;;;20.40;99.90;;;;;;5011716;28;20659;-78
2023/09/20 10:54:23;;;;;;;4.65;1.33;;;20.50;99.90;;;;;;5009164;28;20212;-78
2023/09/20 10:57:09;;;;;;;2.00;1.27;;;20.60;99.90;;;;;;5013239;28;20199;-78
2023/09/20 10:59:38;;;;;;;2.05;1.50;;;20.60;99.90;;;;;;5005617;28;20199;-78
2023/09/20 11:02:08;;;;;;;4.40;1.40;;;20.70;99.90;;;;;;5009825;28;20588;-78
2023/09/20 11:04:42;;;;;;;2.58;1.40;;;20.70;99.90;;;;;;5000352;28;20234;-78
2023/09/20 11:07:10;;;;;;;4.07;1.75;;;20.70;99.90;;;;;;5007692;28;20572;-78
2023/09/20 11:09:39;;;;;;;2.55;1.40;;;20.70;99.90;;;;;;5011843;28;20195;-78
2023/09/20 11:12:08;;;;;;;1.55;1.23;;;20.70;99.90;;;;;;5011335;28;20192;-78
2023/09/20 11:14:38;;;;;;;1.85;1.42;;;20.70;99.90;;;;;;5011131;28;20216;-78
2023/09/20 11:17:06;;;;;;;2.08;1.75;;;20.90;99.90;;;;;;5005010;28;20196;-78
2023/09/20 11:19:34;;;;;;;2.00;1.50;;;20.90;99.90;;;;;;5007026;28;20208;-78
2023/09/20 11:22:02;;;;;;;2.38;1.55;;;21.10;99.90;;;;;;5008329;28;20227;-78
2023/09/20 11:24:30;;;;;;;2.95;1.42;;;21.30;99.90;;;;;;5008106;28;20220;-78
2023/09/20 11:27:00;;;;;;;2.75;1.33;;;21.20;99.90;;;;;;5002907;28;20204;-79
2023/09/20 11:29:28;;;;;;;4.65;1.40;;;21.40;99.90;;;;;;5007567;28;20192;-78
2023/09/20 11:31:58;;;;;;;3.38;1.77;;;21.60;99.90;;;;;;4999910;28;20192;-78
2023/09/20 11:34:28;;;;;;;1.77;1.55;;;21.40;99.90;;;;;;5010541;28;20227;-78
2023/09/20 11:36:57;;;;;;;1.67;1.30;;;21.30;99.90;;;;;;5011407;28;20580;-78
2023/09/20 11:39:46;;;;;;;2.55;1.60;;;21.20;99.90;;;;;;5009346;28;20693;-78
2023/09/20 11:43:09;;;;;;;3.30;1.50;;;21.30;99.90;;;;;;5005343;28;20223;-78
2023/09/20 11:45:41;;;;;;;1.65;1.55;;;21.40;99.90;;;;;;4999002;28;20203;-78
2023/09/20 11:48:25;;;;;;;3.58;1.50;;;21.60;99.90;;;;;;5004114;28;20209;-78
2023/09/20 11:50:54;;;;;;;2.25;1.23;;;21.80;99.90;;;;;;5002860;28;20211;-78
2023/09/20 11:53:22;;;;;;;3.38;1.60;;;21.80;99.90;;;;;;4996874;28;20223;-78
2023/09/20 11:55:57;;;;;;;2.33;1.20;;;21.90;99.90;;;;;;5004821;28;20691;-78
2023/09/20 11:58:25;;;;;;;2.25;1.17;;;21.80;99.90;;;;;;5005143;28;20214;-78
2023/09/20 12:01:03;;;;;;;2.50;1.08;;;22.00;99.90;;;;;;4993389;28;20547;-78
2023/09/20 12:03:31;;;;;;;1.63;1.13;;;22.10;99.90;;;;;;4998135;28;20227;-78
2023/09/20 12:05:58;;;;;;;1.63;1.17;;;22.10;99.90;;;;;;5011137;28;20188;-78
2023/09/20 12:08:31;;;;;;;2.65;1.65;;;22.20;99.90;;;;;;5008714;28;20195;-79
2023/09/20 12:10:59;;;;;;;6.15;1.45;;;22.40;99.90;;;;;;5013524;28;20192;-80
2023/09/20 12:13:27;;;;;;;2.15;1.40;;;22.40;99.90;;;;;;5001406;28;20224;-78
2023/09/20 12:15:54;;;;;;;3.03;1.15;;;22.40;99.90;;;;;;5012155;28;20215;-78
2023/09/20 12:18:25;;;;;;;1.98;1.00;;;22.50;99.90;;;;;;5008701;28;20191;-79
2023/09/20 12:20:52;;;;;;;3.25;1.20;;;22.70;99.90;;;;;;5015315;28;20211;-79
2023/09/20 12:23:24;;;;;;;1.30;0.90;;;22.60;99.90;;;;;;5021244;28;20223;-79
2023/09/20 12:25:52;;;;;;;2.55;1.20;;;22.40;99.90;;;;;;5004355;28;20213;-79
2023/09/20 12:28:19;;;;;;;1.83;1.05;;;22.40;99.90;;;;;;5006948;28;20204;-79
2023/09/20 12:30:47;;;;;;;2.67;1.30;;;22.30;99.90;;;;;;4998876;28;20272;-79
2023/09/20 12:33:14;;;;;;;1.90;1.35;;;22.40;99.90;;;;;;5005981;28;20223;-79
2023/09/20 12:35:43;;;;;;;2.47;1.20;;;22.90;99.70;;;;;;5007213;28;20204;-79
2023/09/20 12:38:12;;;;;;;1.35;0.88;;;23.20;98.90;;;;;;5004883;28;20196;-79
2023/09/20 12:40:40;;;;;;;1.75;1.10;;;23.00;98.40;;;;;;5012562;28;20207;-79
2023/09/20 12:43:08;;;;;;;2.92;1.30;;;23.00;98.30;;;;;;4997028;28;20224;-78
2023/09/20 12:45:35;;;;;;;2.72;1.30;;;23.10;98.00;;;;;;5005759;28;20200;-79
2023/09/20 12:48:03;;;;;;;1.20;0.93;;;23.30;98.00;;;;;;5005897;28;20532;-79
2023/09/20 12:50:36;;;;;;;2.28;1.05;;;23.60;97.50;;;;;;5002822;28;20220;-78
2023/09/20 12:53:09;;;;;;;1.98;1.20;;;23.60;96.80;;;;;;5012086;28;20233;-81
2023/09/20 12:55:38;;;;;;;2.63;1.40;;;23.30;97.40;;;;;;5015184;28;20218;-79
2023/09/20 12:58:06;;;;;;;2.63;1.48;;;23.10;96.90;;;;;;5012895;28;20203;-79
2023/09/20 13:00:34;;;;;;;1.45;1.20;;;23.00;97.20;;;;;;5013363;28;20203;-79
2023/09/20 13:03:03;;;;;;;1.80;1.13;;;23.40;97.30;;;;;;5020513;28;20238;-79
2023/09/20 13:05:31;;;;;;;4.68;1.50;;;23.60;96.90;;;;;;5007277;28;20211;-79
2023/09/20 13:07:59;;;;;;;1.83;1.48;;;23.80;96.80;;;;;;5002354;28;20574;-79
2023/09/20 13:10:29;;;;;;;3.65;1.38;;;24.30;96.20;;;;;;5017098;28;20196;-79
2023/09/20 13:12:56;;;;;;;3.28;1.40;;;24.10;95.10;;;;;;5032206;28;20216;-79
2023/09/20 13:15:23;;;;;;;1.88;1.10;;;23.70;95.80;;;;;;5020672;28;20196;-79
2023/09/20 13:17:51;;;;;;;3.33;1.20;;;23.50;96.40;;;;;;5007437;28;20200;-79
2023/09/20 13:20:19;;;;;;;2.13;1.13;;;23.40;95.70;;;;;;5007219;28;20198;-79
2023/09/20 13:22:46;;;;;;;2.95;1.35;;;23.60;95.40;;;;;;5012301;28;20224;-79
2023/09/20 13:25:19;;;;;;;2.65;1.52;;;23.80;95.50;;;;;;5017154;28;20192;-79
2023/09/20 13:27:48;;;;;;;3.40;1.80;;;24.20;94.90;;;;;;5009442;28;20205;-80
2023/09/20 13:30:17;;;;;;;2.00;1.40;;;24.10;93.90;;;;;;5011414;28;20280;-80
2023/09/20 13:32:46;;;;;;;3.50;1.98;;;24.40;94.50;;;;;;5013250;28;20195;-80
2023/09/20 13:35:15;;;;;;;3.70;1.90;;;24.50;95.10;;;;;;5010848;28;20200;-79
2023/09/20 13:37:45;;;;;;;5.53;1.70;;;24.70;93.40;;;;;;5020049;28;20196;-79
2023/09/20 13:40:23;;;;;;;2.78;1.90;;;24.80;93.50;;;;;;5019653;28;20196;-80